Pagina principale
METAR-TAF:

METAR-TAF

Aeroporti :

Roma, Italia

Aeroporto di Roma-Urbe

latitudine: 41-57N, longitudine: 012-30E, altezza: 18 m

Osservazione

Il bollettino è stato emesso 1 ora e 18 minuti fa, alle 06:50 UTC
Vento 4 kt da nord, variando fra nord-ovest e nord/nord-est
Temperature 20°C
Umidità 53%
Pressione 1019 hPa
Visibilità 10 km o più
nessuna nube inferiore a 1500 m e nessun cumulonembo

METAR: LIRU 270650Z 35004KT 320V020 CAVOK 20/10 Q1019

Ora: 10:08 (08:08 UTC)

Previsione

Il bollettino è stato emesso 3 ore e 8 minuti fa, alle 05:00 UTC
Previsione valida dal 27 alle 06 UTC al 27 alle 15 UTC
Vento 5 kt da direzioni variabili
Visibilità 10 km o più
nessuna nube inferiore a 1500 m e nessun cumulonembo

TAF: LIRU 270500Z 2706/2715 VRB05KT CAVOK

Osservazioni e previsioni meteorologiche di più di 4000 aeroporti (messaggi METAR e TAF).

Le stazioni disponibili sono rappresentate dai dischi gialli e rossi sulla carta.

Puntare il mouse per vedere il nome della stazione.

Clicca sopra per visualizzare le osservazioni e previsioni meteorologiche.

Per cambiare la mappa : fare clic sui pulsanti verdi con una croce nera per ingrandire, il pulsante verde con un trattino per diminuire, o sulla freccia verde per le mappe adiacenti.


METAR-TAF: